Agat, Guam
Current Conditions -  °F | °C
As of 3:54 AM on Monday 24 Nov 2014 (Local Time) from PGUM Reporting Station
Scattered Clouds Scattered Clouds  
Wind Chill: 81°   Ceiling: Unl
Heat Index: 88°   Visibility: 10mi
Dew Point: 77°   Wind: 9mph
Humidity: 88%   Direction: 70°ENE
Pressure: 29.85"   Gusts: NA
Location:  13.38°N, 144.65°E
Report Text: PGUM 231754Z 07008KT 10SM SCT019 27/25 A2985 RMK AO2 RAB36E46 SLP101 P0000 60000 T02720250 10278 20272 56013
Loading
Personal Weather Stations






























Interactive Weather Map New forecast layout! Learn more

10-Day Weather Forecast

Advertisements
Track Severe Weather on mobile